Cairns Airport Weather forecast (YBCS)

METAR

TTF METAR YBCS 210800Z 14013KT 9999 FEW025 SCT120 22/16 Q1016 RMK RF00.0/000.0 NOSIG

TAF

TAF YBCS 210502Z 2106/2206 13014KT 9999 FEW030 FM211100 17008KT 9999 SCT025 FM212300 13014KT 9999 FEW030 RMK T 24 22 20 20 Q 1015 1017 1018 1017

QNH 

1016

Temperature & Dew Point

14° DP16